createdAt,value
2019-05-12T00:00:43.471Z,10.30
2019-05-12T00:03:13.034Z,10.20
2019-05-12T00:05:42.605Z,10.10
2019-05-12T00:08:12.254Z,10.00
2019-05-12T00:10:41.818Z,10.00
2019-05-12T00:13:11.373Z,10.00
2019-05-12T00:15:40.874Z,9.90
2019-05-12T00:18:10.470Z,9.90
2019-05-12T00:20:40.033Z,9.90
2019-05-12T00:23:23.873Z,10.10
2019-05-12T00:25:40.830Z,10.00
2019-05-12T00:28:10.418Z,10.00
2019-05-12T00:30:42.049Z,10.00
2019-05-12T00:33:11.621Z,9.90
2019-05-12T00:35:41.110Z,9.90
2019-05-12T00:38:10.675Z,9.90
2019-05-12T00:40:40.229Z,9.90
2019-05-12T00:43:10.375Z,10.00
2019-05-12T00:45:40.199Z,9.90
2019-05-12T00:48:09.857Z,9.90
2019-05-12T00:50:39.515Z,10.00
2019-05-12T00:53:09.597Z,10.00
2019-05-12T00:55:39.345Z,9.90
2019-05-12T00:58:09.181Z,10.00
2019-05-12T01:00:41.073Z,9.90
2019-05-12T01:03:10.321Z,9.90
2019-05-12T01:05:39.865Z,9.90
2019-05-12T01:08:09.759Z,10.10
2019-05-12T01:10:39.579Z,9.90
2019-05-12T01:13:09.360Z,10.00
2019-05-12T01:15:38.903Z,9.80
2019-05-12T01:18:09.851Z,9.80
2019-05-12T01:20:39.734Z,9.70
2019-05-12T01:23:09.305Z,9.80
2019-05-12T01:25:39.841Z,9.80
2019-05-12T01:28:09.432Z,9.60
2019-05-12T01:30:39.496Z,9.60
2019-05-12T01:33:09.305Z,9.60
2019-05-12T01:35:39.391Z,9.80
2019-05-12T01:38:09.153Z,9.80
2019-05-12T01:40:39.615Z,9.60
2019-05-12T01:43:09.614Z,9.70
2019-05-12T01:45:39.417Z,9.80
2019-05-12T01:48:09.433Z,9.90
2019-05-12T01:50:39.234Z,9.70
2019-05-12T01:53:08.979Z,9.70
2019-05-12T01:55:39.187Z,9.50
2019-05-12T01:58:09.385Z,9.50
2019-05-12T02:00:39.374Z,9.40
2019-05-12T02:03:09.695Z,9.40
2019-05-12T02:05:41.166Z,9.50
2019-05-12T02:08:12.376Z,9.40
2019-05-12T02:10:41.941Z,9.40
2019-05-12T02:13:11.517Z,9.40
2019-05-12T02:15:41.339Z,9.70
2019-05-12T02:18:10.916Z,9.70
2019-05-12T02:20:40.476Z,9.80
2019-05-12T02:23:10.033Z,9.80
2019-05-12T02:25:39.649Z,9.80
2019-05-12T02:28:09.635Z,9.90
2019-05-12T02:30:41.329Z,9.90
2019-05-12T02:33:10.379Z,9.80
2019-05-12T02:35:39.953Z,9.70
2019-05-12T02:38:09.514Z,9.60
2019-05-12T02:40:39.074Z,9.60
2019-05-12T02:43:08.635Z,9.30
2019-05-12T02:45:38.186Z,9.30
2019-05-12T02:48:07.803Z,9.20
2019-05-12T02:50:38.046Z,9.10
2019-05-12T02:53:08.146Z,9.20
2019-05-12T02:55:38.034Z,9.40
2019-05-12T02:58:08.199Z,9.40
2019-05-12T03:00:38.443Z,9.50
2019-05-12T03:03:14.410Z,9.40
2019-05-12T03:05:45.694Z,9.60
2019-05-12T03:08:16.809Z,9.70
2019-05-12T03:10:47.906Z,9.70
2019-05-12T03:13:17.462Z,9.80
2019-05-12T03:15:47.039Z,10.00
2019-05-12T03:18:16.607Z,9.90
2019-05-12T03:20:46.174Z,9.80
2019-05-12T03:23:19.149Z,9.90
2019-05-12T03:25:47.295Z,9.80
2019-05-12T03:28:16.885Z,9.70
2019-05-12T03:30:48.612Z,9.60
2019-05-12T03:33:19.830Z,9.70
2019-05-12T03:35:52.813Z,9.70
2019-05-12T03:38:19.974Z,9.80
2019-05-12T03:40:49.559Z,9.90
2019-05-12T03:43:19.114Z,10.10
2019-05-12T03:45:48.691Z,10.00
2019-05-12T03:48:18.245Z,9.90
2019-05-12T03:50:47.819Z,10.00
2019-05-12T03:53:17.449Z,10.00
2019-05-12T03:55:47.488Z,10.00
2019-05-12T03:58:17.154Z,10.20
2019-05-12T04:00:46.806Z,10.20
2019-05-12T04:03:16.364Z,10.20
2019-05-12T04:05:45.946Z,10.20
2019-05-12T04:08:16.142Z,10.20
2019-05-12T04:10:46.071Z,10.10
2019-05-12T04:13:15.814Z,10.10
2019-05-12T04:15:46.075Z,10.10
2019-05-12T04:18:16.680Z,9.90
2019-05-12T04:20:46.651Z,9.90
2019-05-12T04:23:16.239Z,9.80
2019-05-12T04:25:52.046Z,9.80
2019-05-12T04:28:16.981Z,9.80
2019-05-12T04:30:46.560Z,10.00
2019-05-12T04:33:16.223Z,10.00
2019-05-12T04:35:45.953Z,10.00
2019-05-12T04:38:15.519Z,10.20
2019-05-12T04:40:45.602Z,10.30
2019-05-12T04:43:15.323Z,10.40
2019-05-12T04:45:45.379Z,10.40
2019-05-12T04:48:20.269Z,10.20
2019-05-12T04:50:46.330Z,10.30
2019-05-12T04:53:15.902Z,10.50
2019-05-12T04:55:45.474Z,10.70
2019-05-12T04:58:16.014Z,10.70
2019-05-12T05:00:45.993Z,10.80
2019-05-12T05:03:15.583Z,10.80
2019-05-12T05:05:45.143Z,10.70
2019-05-12T05:08:19.333Z,10.70
2019-05-12T05:10:45.898Z,10.80
2019-05-12T05:13:15.475Z,10.80
2019-05-12T05:15:45.678Z,11.00
2019-05-12T05:18:15.262Z,11.10
2019-05-12T05:20:44.835Z,11.00
2019-05-12T05:23:14.457Z,11.00
2019-05-12T05:25:43.960Z,10.90
2019-05-12T05:28:14.605Z,10.90
2019-05-12T05:30:44.589Z,11.00
2019-05-12T05:33:14.648Z,11.10
2019-05-12T05:35:44.424Z,10.90
2019-05-12T05:38:19.061Z,10.90
2019-05-12T05:40:45.617Z,10.90
2019-05-12T05:43:18.628Z,10.90
2019-05-12T05:45:46.708Z,11.00
2019-05-12T05:48:16.237Z,11.20
2019-05-12T05:50:45.820Z,11.30
2019-05-12T05:53:19.639Z,11.40
2019-05-12T05:55:50.271Z,11.30
2019-05-12T05:58:17.969Z,11.50
2019-05-12T06:00:47.538Z,11.50
2019-05-12T06:03:23.057Z,11.60
2019-05-12T06:05:48.287Z,11.80
2019-05-12T06:08:20.754Z,11.90
2019-05-12T06:10:49.037Z,12.20
2019-05-12T06:13:21.203Z,12.30
2019-05-12T06:15:49.793Z,12.10
2019-05-12T06:18:19.365Z,12.20
2019-05-12T06:20:48.926Z,12.20
2019-05-12T06:23:18.504Z,12.40
2019-05-12T06:25:51.490Z,12.40
2019-05-12T06:28:19.245Z,12.30
2019-05-12T06:30:50.176Z,12.10
2019-05-12T06:33:22.767Z,12.00
2019-05-12T06:35:51.226Z,11.90
2019-05-12T06:38:21.112Z,11.90
2019-05-12T06:40:50.667Z,12.10
2019-05-12T06:43:20.233Z,11.90
2019-05-12T06:45:49.789Z,11.80
2019-05-12T06:48:24.366Z,11.70
2019-05-12T06:50:50.537Z,11.70
2019-05-12T06:53:25.484Z,11.80
2019-05-12T06:55:53.853Z,11.80
2019-05-12T06:58:31.092Z,11.70
2019-05-12T07:00:54.089Z,11.70
2019-05-12T07:03:25.881Z,11.80
2019-05-12T07:05:54.810Z,11.70
2019-05-12T07:08:27.464Z,11.80
2019-05-12T07:11:01.924Z,12.00
2019-05-12T07:13:29.480Z,12.00
2019-05-12T07:15:59.579Z,12.20
2019-05-12T07:18:32.428Z,12.40
2019-05-12T07:21:00.319Z,12.40
2019-05-12T07:23:30.233Z,12.60
2019-05-12T07:26:04.830Z,12.70
2019-05-12T07:28:36.201Z,12.80
2019-05-12T07:31:03.880Z,12.90
2019-05-12T07:33:41.469Z,12.90
2019-05-12T07:36:06.468Z,12.90
2019-05-12T07:38:37.973Z,12.80
2019-05-12T07:41:10.663Z,12.60
2019-05-12T07:43:44.159Z,12.50
2019-05-12T07:46:13.520Z,12.60
2019-05-12T07:48:48.979Z,12.50
2019-05-12T07:51:14.373Z,12.40
2019-05-12T07:53:49.114Z,12.40
2019-05-12T07:56:19.625Z,12.40
2019-05-12T07:58:51.358Z,12.40
2019-05-12T08:01:17.644Z,12.60
2019-05-12T08:03:50.953Z,12.60
2019-05-12T08:06:18.469Z,12.50
2019-05-12T08:08:50.945Z,12.40
2019-05-12T08:11:19.237Z,12.60
2019-05-12T08:13:48.788Z,12.60
2019-05-12T08:16:19.574Z,12.60
2019-05-12T08:18:49.524Z,12.60
2019-05-12T08:21:19.885Z,12.70
2019-05-12T08:23:49.449Z,13.00
2019-05-12T08:26:18.945Z,13.20
2019-05-12T08:28:48.803Z,13.30
2019-05-12T08:31:24.765Z,13.30
2019-05-12T08:33:49.478Z,13.20
2019-05-12T08:36:19.639Z,13.30
2019-05-12T08:38:49.165Z,13.00
2019-05-12T08:41:18.724Z,13.00
2019-05-12T08:43:54.474Z,12.90
2019-05-12T08:46:19.426Z,13.20
2019-05-12T08:48:51.497Z,13.30
2019-05-12T08:51:20.330Z,13.80
2019-05-12T08:53:53.897Z,14.00
2019-05-12T08:56:23.991Z,14.20
2019-05-12T08:58:54.403Z,13.90
2019-05-12T09:01:26.638Z,13.80
2019-05-12T09:03:54.823Z,13.90
2019-05-12T09:06:24.459Z,13.90
2019-05-12T09:08:54.657Z,14.00
2019-05-12T09:11:24.441Z,13.80
2019-05-12T09:14:00.431Z,14.00
2019-05-12T09:16:25.158Z,14.20
2019-05-12T09:18:55.329Z,14.00
2019-05-12T09:21:31.812Z,13.60
2019-05-12T09:23:56.469Z,13.60
2019-05-12T09:26:28.366Z,13.60
2019-05-12T09:28:57.310Z,13.60
2019-05-12T09:31:29.509Z,13.70
2019-05-12T09:33:58.058Z,13.90
2019-05-12T09:36:29.241Z,13.90
2019-05-12T09:39:01.658Z,13.80
2019-05-12T09:41:36.020Z,13.90
2019-05-12T09:44:01.757Z,13.90
2019-05-12T09:46:34.326Z,14.20
2019-05-12T09:49:04.264Z,14.20
2019-05-12T09:51:41.238Z,14.30
2019-05-12T09:54:05.330Z,13.90
2019-05-12T09:56:35.141Z,14.00
2019-05-12T09:59:17.416Z,14.00
2019-05-12T10:01:39.558Z,14.00
2019-05-12T10:04:10.356Z,14.00
2019-05-12T10:06:39.967Z,14.00
2019-05-12T10:09:17.610Z,14.10
2019-05-12T10:11:44.546Z,13.90
2019-05-12T10:14:13.995Z,14.00
2019-05-12T10:16:45.535Z,14.40
2019-05-12T10:19:15.097Z,14.60
2019-05-12T10:21:49.172Z,14.80
2019-05-12T10:24:15.894Z,14.80
2019-05-12T10:26:48.896Z,14.70
2019-05-12T10:29:20.580Z,14.90
2019-05-12T10:31:47.873Z,15.10
2019-05-12T10:34:20.544Z,15.10
2019-05-12T10:36:53.458Z,15.00
2019-05-12T10:39:24.452Z,15.00
2019-05-12T10:41:54.529Z,15.00
2019-05-12T10:44:24.412Z,15.00
2019-05-12T10:46:55.619Z,15.10
2019-05-12T10:49:25.209Z,15.20
2019-05-12T10:51:55.065Z,15.00
2019-05-12T10:54:24.682Z,15.00
2019-05-12T10:56:54.686Z,15.10
2019-05-12T10:59:32.708Z,15.20
2019-05-12T11:01:56.078Z,15.50
2019-05-12T11:04:35.640Z,15.50
2019-05-12T11:06:56.865Z,15.40
2019-05-12T11:09:30.050Z,15.10
2019-05-12T11:11:57.611Z,15.10
2019-05-12T11:14:30.479Z,15.30
2019-05-12T11:17:02.173Z,15.20
2019-05-12T11:19:33.592Z,15.30
2019-05-12T11:22:03.662Z,15.30
2019-05-12T11:24:33.875Z,15.10
2019-05-12T11:27:04.130Z,15.10
2019-05-12T11:29:45.699Z,15.30
2019-05-12T11:32:05.195Z,15.30
2019-05-12T11:34:34.792Z,15.30
2019-05-12T11:37:04.342Z,15.10
2019-05-12T11:39:37.210Z,15.00
2019-05-12T11:42:05.139Z,15.30
2019-05-12T11:44:34.745Z,15.40
2019-05-12T11:47:04.317Z,15.70
2019-05-12T11:49:33.888Z,15.90
2019-05-12T11:52:09.179Z,16.10
2019-05-12T11:54:34.873Z,15.90
2019-05-12T11:57:04.430Z,15.90
2019-05-12T11:59:34.227Z,15.80
2019-05-12T12:02:03.768Z,15.70
2019-05-12T12:04:45.327Z,15.70
2019-05-12T12:07:16.242Z,15.70
2019-05-12T12:09:49.614Z,15.70
2019-05-12T12:12:17.022Z,15.80
2019-05-12T12:14:50.331Z,15.90
2019-05-12T12:17:25.052Z,15.80
2019-05-12T12:19:48.995Z,15.80
2019-05-12T12:22:20.539Z,15.90
2019-05-12T12:24:50.145Z,16.00
2019-05-12T12:27:19.664Z,16.20
2019-05-12T12:29:49.193Z,16.20
2019-05-12T12:32:20.412Z,16.10
2019-05-12T12:34:50.116Z,15.90
2019-05-12T12:37:24.009Z,15.80
2019-05-12T12:40:14.244Z,15.70
2019-05-12T12:42:47.060Z,15.30
2019-05-12T12:45:16.181Z,15.30
2019-05-12T12:47:49.234Z,15.30
2019-05-12T12:50:20.360Z,15.50
2019-05-12T12:52:48.883Z,15.60
2019-05-12T12:55:18.525Z,15.40
2019-05-12T12:57:50.721Z,15.40
2019-05-12T13:00:29.740Z,15.50
2019-05-12T13:02:51.945Z,15.70
2019-05-12T13:05:23.844Z,15.80
2019-05-12T13:07:53.480Z,16.10
2019-05-12T13:10:24.820Z,16.20
2019-05-12T13:12:56.625Z,16.30
2019-05-12T13:15:25.934Z,16.20
2019-05-12T13:17:55.556Z,16.20
2019-05-12T13:20:25.115Z,16.20
2019-05-12T13:22:54.751Z,16.10
2019-05-12T13:25:24.337Z,15.90
2019-05-12T13:27:53.990Z,15.90
2019-05-12T13:30:24.363Z,16.00
2019-05-12T13:32:53.987Z,16.00
2019-05-12T13:35:23.890Z,16.20
2019-05-12T13:37:56.349Z,16.20
2019-05-12T13:40:24.786Z,16.20
2019-05-12T13:42:54.656Z,16.20
2019-05-12T13:45:24.372Z,16.60
2019-05-12T13:47:54.161Z,16.80
2019-05-12T13:50:26.279Z,16.80
2019-05-12T13:52:55.488Z,16.70
2019-05-12T13:55:25.066Z,16.30
2019-05-12T13:57:57.692Z,16.20
2019-05-12T14:00:25.838Z,16.20
2019-05-12T14:03:03.576Z,16.30
2019-05-12T14:05:26.626Z,16.40
2019-05-12T14:07:57.425Z,16.70
2019-05-12T14:10:27.065Z,16.40
2019-05-12T14:12:56.643Z,16.50
2019-05-12T14:15:26.511Z,16.80
2019-05-12T14:17:56.385Z,16.70
2019-05-12T14:28:05.377Z,17.30
2019-05-12T14:30:33.731Z,17.60
2019-05-12T14:33:03.526Z,17.40
2019-05-12T14:35:40.812Z,17.30
2019-05-12T14:38:04.545Z,17.00
2019-05-12T14:40:34.886Z,16.70
2019-05-12T14:43:04.689Z,16.80
2019-05-12T14:45:34.409Z,16.90
2019-05-12T14:48:05.890Z,16.90
2019-05-12T14:50:35.657Z,16.80
2019-05-12T14:53:05.312Z,16.60
2019-05-12T14:55:34.888Z,16.60
2019-05-12T14:58:09.190Z,16.20
2019-05-12T15:00:36.015Z,16.10
2019-05-12T15:03:12.693Z,16.10
2019-05-12T15:05:41.375Z,15.90
2019-05-12T15:08:07.946Z,15.90
2019-05-12T15:10:37.721Z,15.90
2019-05-12T15:13:07.282Z,15.70
2019-05-12T15:15:55.386Z,15.80
2019-05-12T15:18:21.506Z,15.80
2019-05-12T15:20:51.706Z,15.90
2019-05-12T15:23:23.832Z,16.10
2019-05-12T15:25:53.803Z,16.30
2019-05-12T15:28:24.140Z,16.30
2019-05-12T15:30:54.127Z,16.60
2019-05-12T15:33:24.450Z,16.60
2019-05-12T15:35:54.794Z,16.30
2019-05-12T15:38:24.657Z,16.10
2019-05-12T15:40:54.309Z,16.30
2019-05-12T15:43:24.369Z,16.60
2019-05-12T15:45:57.941Z,16.50
2019-05-12T15:48:26.220Z,16.30
2019-05-12T15:50:59.559Z,16.40
2019-05-12T15:53:27.325Z,16.30
2019-05-12T15:55:57.098Z,16.30
2019-05-12T15:58:26.609Z,16.50
2019-05-12T16:00:58.083Z,16.40
2019-05-12T16:03:27.606Z,16.50
2019-05-12T16:06:01.496Z,16.50
2019-05-12T16:08:28.422Z,16.30
2019-05-12T16:10:58.009Z,16.20
2019-05-12T16:13:27.517Z,16.40
2019-05-12T16:16:03.158Z,16.70
2019-05-12T16:22:16.090Z,17.00
2019-05-12T16:24:48.818Z,17.20
2019-05-12T16:27:17.125Z,17.20
2019-05-12T16:29:49.916Z,17.00
2019-05-12T16:32:26.813Z,17.50
2019-05-12T16:34:49.166Z,18.10
2019-05-12T16:37:25.508Z,18.80
2019-05-12T16:39:49.962Z,19.50
2019-05-12T16:42:19.554Z,20.00
2019-05-12T16:44:49.725Z,19.80
2019-05-12T16:47:25.110Z,19.80
2019-05-12T16:49:50.531Z,20.00
2019-05-12T16:52:20.095Z,19.80
2019-05-12T16:54:50.130Z,19.90
2019-05-12T16:57:19.708Z,20.10
2019-05-12T16:59:53.391Z,19.60
2019-05-12T17:02:20.554Z,19.40
2019-05-12T17:04:50.390Z,19.20
2019-05-12T17:07:20.942Z,18.60
2019-05-12T17:09:50.754Z,18.40
2019-05-12T17:12:25.514Z,18.30
2019-05-12T17:14:53.285Z,18.30
2019-05-12T17:17:24.676Z,18.20
2019-05-12T17:19:54.115Z,18.10
2019-05-12T17:22:24.027Z,18.30
2019-05-12T17:24:53.879Z,18.10
2019-05-12T17:27:26.671Z,18.20
2019-05-12T17:29:55.014Z,18.20
2019-05-12T17:32:24.584Z,18.10
2019-05-12T17:34:54.162Z,18.10
2019-05-12T17:37:23.927Z,18.00
2019-05-12T17:39:53.946Z,17.90
2019-05-12T17:42:26.665Z,17.90
2019-05-12T17:44:54.931Z,17.70
2019-05-12T17:47:26.364Z,17.30
2019-05-12T17:50:00.587Z,17.40
2019-05-12T17:52:26.889Z,17.00
2019-05-12T17:55:04.380Z,17.00
2019-05-12T17:57:27.830Z,16.80
2019-05-12T17:59:59.826Z,16.50
2019-05-12T18:02:28.732Z,16.40
2019-05-12T18:05:01.023Z,16.20
2019-05-12T18:07:29.604Z,16.00
2019-05-12T18:10:00.557Z,15.80
2019-05-12T18:12:36.376Z,15.60
2019-05-12T18:15:03.998Z,15.70
2019-05-12T18:17:33.855Z,15.50
2019-05-12T18:20:04.630Z,15.20
2019-05-12T18:22:34.189Z,15.00
2019-05-12T18:25:04.506Z,14.90
2019-05-12T18:27:43.240Z,14.80
2019-05-12T18:30:07.395Z,14.70
2019-05-12T18:32:37.178Z,14.50
2019-05-12T18:35:07.238Z,14.50
2019-05-12T18:37:36.930Z,14.60
2019-05-12T18:40:07.966Z,14.60
2019-05-12T18:42:37.551Z,14.50
2019-05-12T18:45:12.156Z,14.40
2019-05-12T18:47:39.729Z,14.40
2019-05-12T18:50:09.975Z,14.20
2019-05-12T18:52:42.967Z,14.20
2019-05-12T18:55:11.147Z,14.10
2019-05-12T18:57:46.211Z,13.90
2019-05-12T19:00:20.029Z,14.00
2019-05-12T19:02:51.166Z,14.00
2019-05-12T19:05:23.795Z,13.90
2019-05-12T19:07:54.258Z,13.70
2019-05-12T19:10:24.302Z,13.80
2019-05-12T19:13:01.192Z,13.70
2019-05-12T19:15:25.665Z,13.70
2019-05-12T19:17:55.244Z,13.70
2019-05-12T19:20:24.840Z,13.70
2019-05-12T19:22:59.771Z,13.70
2019-05-12T19:25:30.188Z,13.60
2019-05-12T19:28:05.856Z,13.60
2019-05-12T19:30:28.714Z,13.50
2019-05-12T19:33:00.063Z,13.50
2019-05-12T19:35:29.510Z,13.50
2019-05-12T19:38:01.833Z,13.40
2019-05-12T19:40:30.309Z,13.30
2019-05-12T19:43:03.358Z,13.40
2019-05-12T19:45:33.435Z,13.30
2019-05-12T19:48:04.076Z,13.20
2019-05-12T19:50:33.731Z,13.10
2019-05-12T19:53:04.210Z,13.00
2019-05-12T19:55:33.992Z,13.00
2019-05-12T19:58:11.169Z,12.90
2019-05-12T20:00:34.838Z,12.80
2019-05-12T20:03:08.026Z,12.70
2019-05-12T20:05:35.681Z,12.60
2019-05-12T20:08:05.266Z,12.60
2019-05-12T20:10:36.214Z,12.80
2019-05-12T20:13:06.136Z,12.90
2019-05-12T20:15:40.912Z,12.90
2019-05-12T20:18:06.907Z,12.70
2019-05-12T20:20:41.431Z,12.60
2019-05-12T20:23:07.715Z,12.60
2019-05-12T20:25:37.516Z,12.50
2019-05-12T20:28:11.229Z,12.40
2019-05-12T20:30:38.317Z,12.30
2019-05-12T20:33:08.212Z,12.40
2019-05-12T20:35:39.336Z,12.40
2019-05-12T20:38:09.175Z,12.30
2019-05-12T20:40:39.915Z,12.30
2019-05-12T20:43:12.115Z,12.30
2019-05-12T20:45:42.162Z,12.20
2019-05-12T20:48:14.267Z,12.20
2019-05-12T20:50:43.563Z,12.20
2019-05-12T20:53:14.318Z,12.20
2019-05-12T20:55:44.362Z,12.10
2019-05-12T20:58:13.965Z,12.10
2019-05-12T21:00:45.616Z,12.00
2019-05-12T21:03:14.785Z,12.00
2019-05-12T21:05:44.412Z,11.90
2019-05-12T21:08:15.380Z,11.80
2019-05-12T21:10:45.231Z,11.90
2019-05-12T21:13:20.192Z,11.90
2019-05-12T21:15:46.618Z,12.00
2019-05-12T21:18:16.408Z,11.90
2019-05-12T21:20:52.275Z,11.80
2019-05-12T21:23:17.290Z,11.80
2019-05-12T21:25:52.176Z,11.70
2019-05-12T21:28:18.545Z,11.80
2019-05-12T21:30:49.819Z,11.80
2019-05-12T21:33:19.701Z,11.80
2019-05-12T21:35:50.189Z,11.70
2019-05-12T21:38:27.431Z,11.60
2019-05-12T21:40:50.932Z,11.50
2019-05-12T21:43:20.551Z,11.50
2019-05-12T21:45:50.104Z,11.30
2019-05-12T21:48:23.809Z,11.40
2019-05-12T21:50:53.159Z,11.40
2019-05-12T21:53:23.823Z,11.50
2019-05-12T21:55:57.721Z,11.60
2019-05-12T21:58:24.559Z,11.50
2019-05-12T22:01:04.200Z,11.40
2019-05-12T22:03:28.553Z,11.30
2019-05-12T22:06:03.485Z,11.40
2019-05-12T22:08:30.983Z,11.50
2019-05-12T22:11:05.926Z,11.40
2019-05-12T22:13:31.762Z,11.30
2019-05-12T22:16:03.693Z,11.20
2019-05-12T22:18:33.390Z,11.30
2019-05-12T22:21:06.080Z,11.50
2019-05-12T22:23:34.286Z,11.40
2019-05-12T22:26:04.305Z,11.30
2019-05-12T22:28:34.390Z,11.20
2019-05-12T22:31:04.229Z,11.20
2019-05-12T22:33:33.820Z,11.20
2019-05-12T22:36:13.984Z,11.10
2019-05-12T22:38:34.645Z,11.00
2019-05-12T22:41:04.468Z,11.10
2019-05-12T22:43:40.951Z,11.00
2019-05-12T22:46:05.487Z,11.00
2019-05-12T22:48:37.275Z,10.90
2019-05-12T22:51:15.294Z,10.90
2019-05-12T22:53:37.535Z,10.90
2019-05-12T22:56:12.118Z,10.90
2019-05-12T22:58:38.396Z,10.80
2019-05-12T23:01:07.954Z,10.80
2019-05-12T23:03:43.153Z,10.70
2019-05-12T23:06:21.103Z,10.80
2019-05-12T23:08:47.329Z,10.80
2019-05-12T23:11:14.343Z,10.80
2019-05-12T23:13:42.938Z,10.70
2019-05-12T23:16:14.184Z,10.70
2019-05-12T23:18:44.452Z,10.80
2019-05-12T23:21:17.399Z,10.70
2019-05-12T23:23:49.876Z,10.70
2019-05-12T23:26:16.453Z,10.60
2019-05-12T23:28:50.061Z,10.70
2019-05-12T23:31:19.582Z,10.70
2019-05-12T23:33:48.406Z,10.50
2019-05-12T23:36:19.676Z,10.50
2019-05-12T23:38:54.181Z,10.40
2019-05-12T23:41:20.747Z,10.50
2019-05-12T23:43:50.403Z,10.50
2019-05-12T23:46:19.974Z,10.40
2019-05-12T23:48:50.559Z,10.30
2019-05-12T23:51:20.485Z,10.30
2019-05-12T23:53:50.126Z,10.40
2019-05-12T23:56:19.756Z,10.40
2019-05-12T23:58:49.306Z,10.30
